Térkép bezárása
   
 
    
    
 
Legfrissebb észlelések
2020. április 8. 05:15 9099 Pér [AUTOMATA] [2
-2.5 °C
derült
derült
Látástávolság
> 10 km
METAR LHPR 080315Z AUTO 09004KT CAVOK M02/M06 Q1031=
2020. április 8. 05:15 8391 Sármellék [AUTOMATA] [2
0.1 °C
derült
derült
Látástávolság
> 10 km
METAR LHSM 080315Z AUTO 32003KT CAVOK 00/M04 Q1031=
2020. április 8. 05:08 3724 Ragály [Süttő Tibor] [2
-1.1 °C
derült
derült
Látástávolság
> 10 km
Szélcsend
2020. április 8. 04:56 9121 Győrszemere Nagyszentpál [Fischer Imre] [3] (OMSZ-TÁRS
-0.5 °C
derült
derült
Látástávolság
> 10 km
Összfelhőzet: 0 okta. .
2020. április 8. 04:55 6728 Szeged [Strell Lajos] [3] (OMSZ-ÉSZ 
2.0 °C
derült
derült
Látástávolság
> 10 km
Összfelhőzet: 0 okta. .
2020. április 8. 04:54 3533 Miskolc [Strell Lajos] [3] (OMSZ-ÉSZ 
2.8 °C
derült
derült
Látástávolság
> 10 km
Összfelhőzet: 0 okta. .
2020. április 8. 04:54 9400 Sopron [Temesi András] [3] (OMSZ-ÉSZ 
7.6 °C
derült
derült
Látástávolság
> 10 km
Összfelhőzet: 0 okta. .
2020. április 8. 04:54 3300 Eger [Strell Lajos] [3] (OMSZ-ÉSZ 
7.2 °C
derült
derült
Látástávolság
> 10 km
Összfelhőzet: 0 okta. .
2020. április 8. 04:54 8600 Siófok [Temesi András] [3] (OMSZ-ÉSZ 
2.9 °C
derült
derült
Látástávolság
> 10 km
Összfelhőzet: 0 okta. .
2020. április 8. 04:54 7031 Paks [Szintai Margit] [3] (OMSZ-ÉSZ
-1.9 °C
derült
derült
Látástávolság
> 10 km
Összfelhőzet: 0 okta. .
2020. április 8. 04:53 8800 Nagykanizsa [Temesi András] [3] (OMSZ-ÉSZ 
-2.5 °C
derült
derült
Látástávolság
> 10 km
Összfelhőzet: 0 okta. .
2020. április 8. 04:53 4030 Debrecen [Strell Lajos] [3] (OMSZ-ÉSZ 
0.8 °C
derült
derült
Látástávolság
5-10 km
Összfelhőzet: 0 okta. .
2020. április 8. 04:53 9700 Szombathely [Temesi András] [3] (OMSZ-ÉSZ 
-0.8 °C
derült
derült
Látástávolság
> 10 km
Összfelhőzet: 0 okta. .
2020. április 8. 04:52 7666 Pogány [Temesi András] [3] (OMSZ-ÉSZ 
7.0 °C
derült
derült
Látástávolság
> 10 km
Összfelhőzet: 0 okta. .
2020. április 8. 04:52 5600 Békéscsaba [Strell Lajos] [3] (OMSZ-ÉSZ 
1.1 °C
derült
derült
Látástávolság
> 10 km
Összfelhőzet: 0 okta. .
2020. április 8. 04:52 1181 Budapest Pestszentlőrinc [Strell Lajos] [3] (OMSZ-ÉSZ 
3.6 °C
derült
derült
Látástávolság
> 10 km
Összfelhőzet: 0 okta. .
2020. április 8. 04:52 7095 Iregszemcse [Turós Ildikó] [3] (OMSZ-TÁRS
1.1 °C
derült
derült
Látástávolság
> 10 km
Összfelhőzet: 0 okta. .
2020. április 8. 04:51 3221 Kékestető [Strell Lajos] [3] (OMSZ-ÉSZ 
7.2 °C
derült
derült
Látástávolság
> 10 km
Összfelhőzet: 0 okta. .
2020. április 8. 04:45 9099 Pér [AUTOMATA] [2
-1.5 °C
derült
derült
Látástávolság
> 10 km
METAR LHPR 080245Z AUTO 11004KT CAVOK M01/M06 Q1031=
2020. április 8. 04:45 8391 Sármellék [AUTOMATA] [2
0.7 °C
derült
derült
Látástávolság
> 10 km
METAR LHSM 080245Z AUTO 31003KT CAVOK 01/M04 Q1031=